createdAt,value
2023-01-10T00:00:54.429Z,11.00
2023-01-10T00:03:21.033Z,11.00
2023-01-10T00:05:48.511Z,11.00
2023-01-10T00:08:17.031Z,11.00
2023-01-10T00:10:43.795Z,11.10
2023-01-10T00:13:24.815Z,11.10
2023-01-10T00:15:53.269Z,11.00
2023-01-10T00:18:20.462Z,11.00
2023-01-10T00:20:47.939Z,10.90
2023-01-10T00:23:15.118Z,10.90
2023-01-10T00:25:42.288Z,10.90
2023-01-10T00:28:20.764Z,10.90
2023-01-10T00:31:01.316Z,11.10
2023-01-10T00:33:31.888Z,11.00
2023-01-10T00:35:59.569Z,11.10
2023-01-10T00:38:26.387Z,11.00
2023-01-10T00:40:53.008Z,10.90
2023-01-10T00:43:38.591Z,11.00
2023-01-10T00:46:05.475Z,11.00
2023-01-10T00:48:32.140Z,11.00
2023-01-10T00:50:58.875Z,11.10
2023-01-10T00:53:25.681Z,11.10
2023-01-10T00:55:54.212Z,11.10
2023-01-10T00:58:21.047Z,11.00
2023-01-10T01:00:49.877Z,11.10
2023-01-10T01:03:19.155Z,11.00
2023-01-10T01:05:46.992Z,10.90
2023-01-10T01:08:15.506Z,11.00
2023-01-10T01:10:42.098Z,11.00
2023-01-10T01:13:20.879Z,11.00
2023-01-10T01:15:48.703Z,11.00
2023-01-10T01:18:18.270Z,11.10
2023-01-10T01:20:48.489Z,11.10
2023-01-10T01:23:15.755Z,11.00
2023-01-10T01:25:42.695Z,10.90
2023-01-10T01:28:13.905Z,10.90
2023-01-10T01:30:40.579Z,11.00
2023-01-10T01:33:07.419Z,10.90
2023-01-10T01:35:34.654Z,10.70
2023-01-10T01:38:01.352Z,10.70
2023-01-10T01:40:28.144Z,10.80
2023-01-10T01:42:57.571Z,10.80
2023-01-10T01:45:24.145Z,10.80
2023-01-10T01:47:53.061Z,10.80
2023-01-10T01:50:26.403Z,10.80
2023-01-10T01:52:56.293Z,10.80
2023-01-10T01:55:25.169Z,10.80
2023-01-10T01:57:54.985Z,10.90
2023-01-10T02:00:21.968Z,10.80
2023-01-10T02:03:02.622Z,10.70
2023-01-10T02:05:31.452Z,10.70
2023-01-10T02:07:59.696Z,10.70
2023-01-10T02:11:01.539Z,10.80
2023-01-10T02:13:28.498Z,10.70
2023-01-10T02:15:55.148Z,10.70
2023-01-10T02:18:23.345Z,10.70
2023-01-10T02:21:18.184Z,10.80
2023-01-10T02:24:15.963Z,10.90
2023-01-10T02:27:19.653Z,10.90
2023-01-10T02:30:22.702Z,10.80
2023-01-10T02:33:05.087Z,10.70
2023-01-10T02:36:07.847Z,10.80
2023-01-10T02:38:50.134Z,10.70
2023-01-10T02:41:41.898Z,10.70
2023-01-10T02:44:12.007Z,10.60
2023-01-10T02:46:39.753Z,10.60
2023-01-10T02:49:06.797Z,10.70
2023-01-10T02:51:33.520Z,10.70
2023-01-10T02:54:14.825Z,10.60
2023-01-10T02:57:04.695Z,10.70
2023-01-10T02:59:59.487Z,10.50
2023-01-10T03:03:04.105Z,10.50
2023-01-10T03:05:49.116Z,10.50
2023-01-10T03:08:34.296Z,10.60
2023-01-10T03:11:04.388Z,10.50
2023-01-10T03:13:41.972Z,10.50
2023-01-10T03:16:13.420Z,10.60
2023-01-10T03:18:51.504Z,10.60
2023-01-10T03:21:19.757Z,10.70
2023-01-10T03:23:49.165Z,10.80
2023-01-10T03:26:17.580Z,10.70
2023-01-10T03:28:50.952Z,10.80
2023-01-10T03:31:25.892Z,10.80
2023-01-10T03:33:52.509Z,10.80
2023-01-10T03:36:35.539Z,10.70
2023-01-10T03:39:23.555Z,10.50
2023-01-10T03:42:11.653Z,10.60
2023-01-10T03:44:49.271Z,10.60
2023-01-10T03:47:27.927Z,10.60
2023-01-10T03:50:04.561Z,10.70
2023-01-10T03:52:34.224Z,10.70
2023-01-10T03:55:02.527Z,10.60
2023-01-10T03:57:29.358Z,10.60
2023-01-10T03:59:58.178Z,10.60
2023-01-10T04:02:30.667Z,10.60
2023-01-10T04:04:58.923Z,10.60
2023-01-10T04:07:26.047Z,10.50
2023-01-10T04:09:52.973Z,10.60
2023-01-10T04:12:19.532Z,10.50
2023-01-10T04:14:47.032Z,10.50
2023-01-10T04:17:15.439Z,10.50
2023-01-10T04:19:42.344Z,10.50
2023-01-10T04:22:09.633Z,10.50
2023-01-10T04:24:36.272Z,10.40
2023-01-10T04:27:03.267Z,10.50
2023-01-10T04:29:29.851Z,10.50
2023-01-10T04:31:56.511Z,10.50
2023-01-10T04:34:23.178Z,10.40
2023-01-10T04:36:50.726Z,10.40
2023-01-10T04:39:17.533Z,10.30
2023-01-10T04:41:44.177Z,10.40
2023-01-10T04:44:11.823Z,10.50
2023-01-10T04:46:38.416Z,10.40
2023-01-10T04:49:05.416Z,10.40
2023-01-10T04:51:32.006Z,10.40
2023-01-10T04:53:58.591Z,10.50
2023-01-10T04:56:25.412Z,10.50
2023-01-10T04:58:54.005Z,10.50
2023-01-10T05:01:23.506Z,10.50
2023-01-10T05:03:51.254Z,10.50
2023-01-10T05:06:18.640Z,10.50
2023-01-10T05:08:45.775Z,10.40
2023-01-10T05:11:12.760Z,10.30
2023-01-10T05:13:39.830Z,10.30
2023-01-10T05:16:07.044Z,10.40
2023-01-10T05:18:34.037Z,10.50
2023-01-10T05:21:09.059Z,10.40
2023-01-10T05:23:35.951Z,10.50
2023-01-10T05:26:10.068Z,10.40
2023-01-10T05:28:37.426Z,10.30
2023-01-10T05:31:07.300Z,10.30
2023-01-10T05:33:34.001Z,10.40
2023-01-10T05:36:05.741Z,10.50
2023-01-10T05:38:33.660Z,10.50
2023-01-10T05:41:00.773Z,10.50
2023-01-10T05:43:28.224Z,10.60
2023-01-10T05:45:54.863Z,10.60
2023-01-10T05:48:21.859Z,10.60
2023-01-10T05:50:50.632Z,10.50
2023-01-10T05:53:18.159Z,10.50
2023-01-10T05:55:52.994Z,10.60
2023-01-10T05:58:19.582Z,10.50
2023-01-10T06:00:46.222Z,10.40
2023-01-10T06:03:12.924Z,10.40
2023-01-10T06:05:39.496Z,10.40
2023-01-10T06:08:06.097Z,10.30
2023-01-10T06:10:32.681Z,10.30
2023-01-10T06:12:59.290Z,10.20
2023-01-10T06:15:26.572Z,10.20
2023-01-10T06:17:53.325Z,10.20
2023-01-10T06:20:19.953Z,10.30
2023-01-10T06:22:46.527Z,10.20
2023-01-10T06:25:14.329Z,10.20
2023-01-10T06:27:42.321Z,10.30
2023-01-10T06:30:10.676Z,10.30
2023-01-10T06:32:37.502Z,10.30
2023-01-10T06:35:04.972Z,10.20
2023-01-10T06:37:32.150Z,10.20
2023-01-10T06:39:58.815Z,10.20
2023-01-10T06:42:25.504Z,10.20
2023-01-10T06:44:52.107Z,10.20
2023-01-10T06:47:18.712Z,10.20
2023-01-10T06:49:45.373Z,10.20
2023-01-10T06:52:12.027Z,10.20
2023-01-10T06:54:38.595Z,10.20
2023-01-10T06:57:05.755Z,10.30
2023-01-10T06:59:32.337Z,10.20
2023-01-10T07:01:59.042Z,10.10
2023-01-10T07:04:26.815Z,10.00
2023-01-10T07:06:54.724Z,10.10
2023-01-10T07:09:21.413Z,10.20
2023-01-10T07:11:48.041Z,10.20
2023-01-10T07:14:14.650Z,10.10
2023-01-10T07:16:41.272Z,10.20
2023-01-10T07:19:07.863Z,10.20
2023-01-10T07:21:34.448Z,10.30
2023-01-10T07:24:02.768Z,10.30
2023-01-10T07:26:29.815Z,10.40
2023-01-10T07:28:56.480Z,10.30
2023-01-10T07:31:24.352Z,10.20
2023-01-10T07:33:52.150Z,10.30
2023-01-10T07:36:19.223Z,10.30
2023-01-10T07:38:45.842Z,10.20
2023-01-10T07:41:12.729Z,10.20
2023-01-10T07:43:39.382Z,10.20
2023-01-10T07:46:12.466Z,10.10
2023-01-10T07:48:41.904Z,10.20
2023-01-10T07:51:08.873Z,10.20
2023-01-10T07:53:35.494Z,10.30
2023-01-10T07:56:03.917Z,10.30
2023-01-10T07:58:30.693Z,10.30
2023-01-10T08:00:58.753Z,10.30
2023-01-10T08:03:25.931Z,10.20
2023-01-10T08:06:00.356Z,10.20
2023-01-10T08:08:27.274Z,10.20
2023-01-10T08:10:54.048Z,10.10
2023-01-10T08:13:20.730Z,10.20
2023-01-10T08:15:50.211Z,10.30
2023-01-10T08:18:17.241Z,10.20
2023-01-10T08:20:43.900Z,10.30
2023-01-10T08:23:10.486Z,10.20
2023-01-10T08:25:39.373Z,10.10
2023-01-10T08:28:06.487Z,10.20
2023-01-10T08:30:33.225Z,10.30
2023-01-10T08:33:02.659Z,10.30
2023-01-10T08:35:29.710Z,10.30
2023-01-10T08:38:00.408Z,10.10
2023-01-10T08:40:27.366Z,10.10
2023-01-10T08:43:02.592Z,10.10
2023-01-10T08:45:29.966Z,10.30
2023-01-10T08:47:56.822Z,10.30
2023-01-10T08:50:24.576Z,10.20
2023-01-10T08:52:51.620Z,10.20
2023-01-10T08:55:19.850Z,10.20
2023-01-10T08:57:46.614Z,10.10
2023-01-10T09:00:13.745Z,10.00
2023-01-10T09:02:41.211Z,10.10
2023-01-10T09:05:18.656Z,10.00
2023-01-10T09:07:53.194Z,9.90
2023-01-10T09:10:21.432Z,10.00
2023-01-10T09:12:57.449Z,10.10
2023-01-10T09:15:26.809Z,10.20
2023-01-10T09:17:55.470Z,10.20
2023-01-10T09:20:25.958Z,10.20
2023-01-10T09:22:53.042Z,10.10
2023-01-10T09:25:20.012Z,10.20
2023-01-10T09:27:46.909Z,10.20
2023-01-10T09:30:14.042Z,10.30
2023-01-10T09:32:40.786Z,10.20
2023-01-10T09:35:07.728Z,10.20
2023-01-10T09:37:34.918Z,10.20
2023-01-10T09:40:01.667Z,10.20
2023-01-10T09:42:28.382Z,10.20
2023-01-10T09:45:16.323Z,10.10
2023-01-10T09:47:50.926Z,10.00
2023-01-10T09:50:42.731Z,10.00
2023-01-10T09:53:20.719Z,10.10
2023-01-10T09:55:53.376Z,10.00
2023-01-10T09:58:23.629Z,9.90
2023-01-10T10:00:58.045Z,10.00
2023-01-10T10:03:51.788Z,10.10
2023-01-10T10:06:18.919Z,10.20
2023-01-10T10:08:47.488Z,10.10
2023-01-10T10:11:26.150Z,10.10
2023-01-10T10:14:17.279Z,10.20
2023-01-10T10:17:11.764Z,10.20
2023-01-10T10:19:59.246Z,10.30
2023-01-10T10:22:49.088Z,10.40
2023-01-10T10:25:43.908Z,10.30
2023-01-10T10:28:46.562Z,10.20
2023-01-10T10:31:39.116Z,10.30
2023-01-10T10:34:36.851Z,10.20
2023-01-10T10:37:12.146Z,10.00
2023-01-10T10:39:55.452Z,10.10
2023-01-10T10:42:22.610Z,10.20
2023-01-10T10:45:02.126Z,10.10
2023-01-10T10:47:33.649Z,10.20
2023-01-10T10:50:15.453Z,10.20
2023-01-10T10:52:44.104Z,10.30
2023-01-10T10:55:19.743Z,10.30
2023-01-10T10:57:59.574Z,10.30
2023-01-10T11:00:28.622Z,10.20
2023-01-10T11:03:25.211Z,10.30
2023-01-10T11:05:52.469Z,10.20
2023-01-10T11:08:21.478Z,10.20
2023-01-10T11:10:57.221Z,10.10
2023-01-10T11:13:47.258Z,10.10
2023-01-10T11:16:32.430Z,10.20
2023-01-10T11:19:17.907Z,10.10
2023-01-10T11:21:57.010Z,10.10
2023-01-10T11:24:32.316Z,10.30
2023-01-10T11:27:02.444Z,10.30
2023-01-10T11:29:43.309Z,10.20
2023-01-10T11:32:15.269Z,10.20
2023-01-10T11:34:48.723Z,10.30
2023-01-10T11:37:21.358Z,10.30
2023-01-10T11:39:48.058Z,10.20
2023-01-10T11:42:41.201Z,10.30
2023-01-10T11:45:34.550Z,10.40
2023-01-10T11:48:47.798Z,10.50
2023-01-10T11:51:26.287Z,10.40
2023-01-10T11:53:59.520Z,10.40
2023-01-10T11:56:30.436Z,10.50
2023-01-10T11:59:00.082Z,10.30
2023-01-10T12:01:44.073Z,10.30
2023-01-10T12:04:15.919Z,10.50
2023-01-10T12:06:46.795Z,10.40
2023-01-10T12:09:53.941Z,10.40
2023-01-10T12:12:23.448Z,10.50
2023-01-10T12:14:51.177Z,10.50
2023-01-10T12:17:31.026Z,10.70
2023-01-10T12:20:00.580Z,10.70
2023-01-10T12:22:38.360Z,10.70
2023-01-10T12:25:18.299Z,10.70
2023-01-10T12:27:50.150Z,10.60
2023-01-10T12:30:38.768Z,10.60
2023-01-10T12:33:16.728Z,10.60
2023-01-10T12:36:29.899Z,10.50
2023-01-10T12:39:16.238Z,10.50
2023-01-10T12:42:33.948Z,10.60
2023-01-10T12:45:14.839Z,10.60
2023-01-10T12:47:57.632Z,10.60
2023-01-10T12:50:46.137Z,10.60
2023-01-10T12:53:30.139Z,10.50
2023-01-10T12:56:00.976Z,10.70
2023-01-10T12:58:53.447Z,10.70
2023-01-10T13:01:24.265Z,10.80
2023-01-10T13:03:56.422Z,10.60
2023-01-10T13:06:34.395Z,10.50
2023-01-10T13:09:08.846Z,10.60
2023-01-10T13:11:50.598Z,10.60
2023-01-10T13:14:21.461Z,10.60
2023-01-10T13:16:55.410Z,10.70
2023-01-10T13:19:27.582Z,10.70
2023-01-10T13:22:19.427Z,10.50
2023-01-10T13:24:58.142Z,10.60
2023-01-10T13:27:35.873Z,10.50
2023-01-10T13:30:05.076Z,10.70
2023-01-10T13:32:35.149Z,10.80
2023-01-10T13:35:22.128Z,10.80
2023-01-10T13:37:55.297Z,10.80
2023-01-10T13:40:30.170Z,10.80
2023-01-10T13:43:37.234Z,10.80
2023-01-10T13:46:19.257Z,10.80
2023-01-10T13:48:48.981Z,10.80
2023-01-10T13:51:20.782Z,10.70
2023-01-10T13:53:53.105Z,10.50
2023-01-10T13:56:49.162Z,10.50
2023-01-10T13:59:43.472Z,10.60
2023-01-10T14:02:31.383Z,10.60
2023-01-10T14:05:01.983Z,10.70
2023-01-10T14:07:33.330Z,10.60
2023-01-10T14:10:09.200Z,10.50
2023-01-10T14:12:48.511Z,10.50
2023-01-10T14:15:37.553Z,10.50
2023-01-10T14:18:20.381Z,10.50
2023-01-10T14:21:05.019Z,10.60
2023-01-10T14:23:38.494Z,10.70
2023-01-10T14:26:06.459Z,10.70
2023-01-10T14:28:35.644Z,10.70
2023-01-10T14:31:28.952Z,10.80
2023-01-10T14:33:58.268Z,10.70
2023-01-10T14:36:30.447Z,10.70
2023-01-10T14:39:01.927Z,10.70
2023-01-10T14:41:44.443Z,10.70
2023-01-10T14:44:27.668Z,10.70
2023-01-10T14:46:57.018Z,10.60
2023-01-10T14:49:28.133Z,10.60
2023-01-10T14:52:10.461Z,10.70
2023-01-10T14:54:37.207Z,10.70
2023-01-10T14:57:04.007Z,10.60
2023-01-10T14:59:36.016Z,10.60
2023-01-10T15:02:23.349Z,10.70
2023-01-10T15:04:57.574Z,10.60
2023-01-10T15:07:25.642Z,10.60
2023-01-10T15:09:57.081Z,10.50
2023-01-10T15:12:26.636Z,10.40
2023-01-10T15:15:06.584Z,10.40
2023-01-10T15:17:35.930Z,10.40
2023-01-10T15:20:04.648Z,10.40
2023-01-10T15:22:35.963Z,10.50
2023-01-10T15:25:07.968Z,10.40
2023-01-10T15:27:36.796Z,10.50
2023-01-10T15:30:08.823Z,10.40
2023-01-10T15:32:41.081Z,10.40
2023-01-10T15:35:10.820Z,10.40
2023-01-10T15:37:40.853Z,10.20
2023-01-10T15:40:24.064Z,10.30
2023-01-10T15:42:50.834Z,10.20
2023-01-10T15:45:30.889Z,10.10
2023-01-10T15:48:03.651Z,10.10
2023-01-10T15:50:39.981Z,10.30
2023-01-10T15:53:09.815Z,10.20
2023-01-10T15:55:39.316Z,10.30
2023-01-10T15:58:20.027Z,10.30
2023-01-10T16:00:49.093Z,10.20
2023-01-10T16:03:27.170Z,10.10
2023-01-10T16:05:56.233Z,10.30
2023-01-10T16:08:27.199Z,10.30
2023-01-10T16:11:06.615Z,10.30
2023-01-10T16:13:35.246Z,10.20
2023-01-10T16:16:04.931Z,10.10
2023-01-10T16:18:31.646Z,10.20
2023-01-10T16:21:01.332Z,10.20
2023-01-10T16:23:34.292Z,10.10
2023-01-10T16:26:04.582Z,10.20
2023-01-10T16:28:35.700Z,10.20
2023-01-10T16:31:06.221Z,10.10
2023-01-10T16:33:33.246Z,10.10
2023-01-10T16:36:00.168Z,10.00
2023-01-10T16:38:29.179Z,10.20
2023-01-10T16:41:22.305Z,10.30
2023-01-10T16:43:49.723Z,10.30
2023-01-10T16:46:16.510Z,10.30
2023-01-10T16:48:44.949Z,10.30
2023-01-10T16:51:20.490Z,10.30
2023-01-10T16:53:47.965Z,10.40
2023-01-10T16:56:17.879Z,10.30
2023-01-10T16:58:44.529Z,10.30
2023-01-10T17:01:17.072Z,10.40
2023-01-10T17:03:44.108Z,10.30
2023-01-10T17:06:15.358Z,10.20
2023-01-10T17:08:42.717Z,10.40
2023-01-10T17:11:19.688Z,10.20
2023-01-10T17:13:46.545Z,10.30
2023-01-10T17:16:13.269Z,10.20
2023-01-10T17:18:40.025Z,10.20
2023-01-10T17:21:06.821Z,10.20
2023-01-10T17:23:33.514Z,10.30
2023-01-10T17:26:02.343Z,10.40
2023-01-10T17:28:29.380Z,10.40
2023-01-10T17:30:57.170Z,10.40
2023-01-10T17:33:24.883Z,10.50
2023-01-10T17:35:56.785Z,10.20
2023-01-10T17:38:25.374Z,10.20
2023-01-10T17:40:52.494Z,10.20
2023-01-10T17:43:20.544Z,10.20
2023-01-10T17:45:50.860Z,10.30
2023-01-10T17:48:18.914Z,10.30
2023-01-10T17:50:47.682Z,10.20
2023-01-10T17:53:16.535Z,10.10
2023-01-10T17:55:47.141Z,10.20
2023-01-10T17:58:14.534Z,10.20
2023-01-10T18:00:41.221Z,10.20
2023-01-10T18:03:08.820Z,10.10
2023-01-10T18:05:35.660Z,10.20
2023-01-10T18:08:03.847Z,10.10
2023-01-10T18:10:30.507Z,10.10
2023-01-10T18:12:57.144Z,10.10
2023-01-10T18:15:25.156Z,10.10
2023-01-10T18:17:52.463Z,10.20
2023-01-10T18:20:19.292Z,10.10
2023-01-10T18:23:05.088Z,10.10
2023-01-10T18:25:31.988Z,10.10
2023-01-10T18:28:00.055Z,10.20
2023-01-10T18:30:26.671Z,10.20
2023-01-10T18:32:54.240Z,10.20
2023-01-10T18:35:22.174Z,10.30
2023-01-10T18:37:49.073Z,10.30
2023-01-10T18:40:15.782Z,10.30
2023-01-10T18:42:43.192Z,10.20
2023-01-10T18:45:10.193Z,10.10
2023-01-10T18:47:36.836Z,10.00
2023-01-10T18:50:03.632Z,10.00
2023-01-10T18:52:30.353Z,10.20
2023-01-10T18:54:56.990Z,10.20
2023-01-10T18:57:24.845Z,10.20
2023-01-10T18:59:51.469Z,10.30
2023-01-10T19:02:18.135Z,10.20
2023-01-10T19:04:44.785Z,10.20
2023-01-10T19:07:11.424Z,10.30
2023-01-10T19:09:38.005Z,10.30
2023-01-10T19:12:04.777Z,10.20
2023-01-10T19:14:31.371Z,10.10
2023-01-10T19:16:57.949Z,10.10
2023-01-10T19:19:24.577Z,10.10
2023-01-10T19:21:51.161Z,9.90
2023-01-10T19:24:22.796Z,9.90
2023-01-10T19:26:49.714Z,10.00
2023-01-10T19:29:16.473Z,10.00
2023-01-10T19:31:43.423Z,10.00
2023-01-10T19:34:12.127Z,10.10
2023-01-10T19:36:41.259Z,10.20
2023-01-10T19:39:09.181Z,10.30
2023-01-10T19:41:36.292Z,10.20
2023-01-10T19:44:10.531Z,10.20
2023-01-10T19:46:38.799Z,10.20
2023-01-10T19:49:07.811Z,9.90
2023-01-10T19:51:36.922Z,9.90
2023-01-10T19:54:05.289Z,9.80
2023-01-10T19:56:32.618Z,9.80
2023-01-10T19:58:59.448Z,9.90
2023-01-10T20:01:28.638Z,9.90
2023-01-10T20:04:01.533Z,9.90
2023-01-10T20:06:31.091Z,9.90
2023-01-10T20:08:58.224Z,9.90
2023-01-10T20:11:26.984Z,9.90
2023-01-10T20:13:53.772Z,10.00
2023-01-10T20:16:23.264Z,9.90
2023-01-10T20:18:51.337Z,9.80
2023-01-10T20:21:19.157Z,9.80
2023-01-10T20:23:46.209Z,9.80
2023-01-10T20:26:15.723Z,9.80
2023-01-10T20:28:43.764Z,9.80
2023-01-10T20:31:14.927Z,9.80
2023-01-10T20:33:41.596Z,9.70
2023-01-10T20:36:12.024Z,9.70
2023-01-10T20:38:38.809Z,9.70
2023-01-10T20:41:15.011Z,9.60
2023-01-10T20:43:42.281Z,9.60
2023-01-10T20:46:18.193Z,9.90
2023-01-10T20:48:47.267Z,9.80
2023-01-10T20:51:16.560Z,9.90
2023-01-10T20:53:44.331Z,9.90
2023-01-10T20:56:13.982Z,9.80
2023-01-10T20:58:40.644Z,10.00
2023-01-10T21:01:07.941Z,9.90
2023-01-10T21:03:34.986Z,9.90
2023-01-10T21:06:02.321Z,10.00
2023-01-10T21:08:29.696Z,9.90
2023-01-10T21:10:57.484Z,9.90
2023-01-10T21:13:24.620Z,10.00
2023-01-10T21:15:54.964Z,10.00
2023-01-10T21:18:24.632Z,10.00
2023-01-10T21:20:56.142Z,9.90
2023-01-10T21:23:24.880Z,9.70
2023-01-10T21:25:53.002Z,9.80
2023-01-10T21:28:20.449Z,9.80
2023-01-10T21:30:47.184Z,10.00
2023-01-10T21:33:13.962Z,10.00
2023-01-10T21:35:40.603Z,10.00
2023-01-10T21:38:07.239Z,9.90
2023-01-10T21:40:34.419Z,10.10
2023-01-10T21:43:01.986Z,10.00
2023-01-10T21:45:28.729Z,10.10
2023-01-10T21:47:56.601Z,10.00
2023-01-10T21:50:23.338Z,10.00
2023-01-10T21:52:49.970Z,10.00
2023-01-10T21:55:17.392Z,10.00
2023-01-10T21:57:44.405Z,10.10
2023-01-10T22:00:13.171Z,10.00
2023-01-10T22:02:43.559Z,10.00
2023-01-10T22:05:11.222Z,10.10
2023-01-10T22:07:38.276Z,10.10
2023-01-10T22:10:07.238Z,10.10
2023-01-10T22:12:37.053Z,10.20
2023-01-10T22:15:04.357Z,10.00
2023-01-10T22:17:31.011Z,9.90
2023-01-10T22:19:57.720Z,9.90
2023-01-10T22:22:24.408Z,9.90
2023-01-10T22:24:51.180Z,9.90
2023-01-10T22:27:19.792Z,9.60
2023-01-10T22:29:46.460Z,9.70
2023-01-10T22:32:13.106Z,9.80
2023-01-10T22:34:39.812Z,9.70
2023-01-10T22:37:06.446Z,9.70
2023-01-10T22:39:33.367Z,9.80
2023-01-10T22:42:00.007Z,9.90
2023-01-10T22:44:27.104Z,9.80
2023-01-10T22:46:55.489Z,9.70
2023-01-10T22:49:22.849Z,9.70
2023-01-10T22:51:49.761Z,9.60
2023-01-10T22:54:16.719Z,9.70
2023-01-10T22:56:44.633Z,9.80
2023-01-10T22:59:11.609Z,9.90
2023-01-10T23:01:38.887Z,9.80
2023-01-10T23:04:06.007Z,9.60
2023-01-10T23:06:33.031Z,9.60
2023-01-10T23:08:59.694Z,9.40
2023-01-10T23:11:26.300Z,9.40
2023-01-10T23:13:52.942Z,9.60
2023-01-10T23:16:28.138Z,9.70
2023-01-10T23:18:59.912Z,9.50
2023-01-10T23:21:35.963Z,9.30
2023-01-10T23:24:02.659Z,9.40
2023-01-10T23:26:29.353Z,9.50
2023-01-10T23:28:55.988Z,9.60
2023-01-10T23:31:24.304Z,9.70
2023-01-10T23:33:51.478Z,9.60
2023-01-10T23:36:27.158Z,9.60
2023-01-10T23:38:54.059Z,9.60
2023-01-10T23:41:21.325Z,9.60
2023-01-10T23:43:49.196Z,9.60
2023-01-10T23:46:16.447Z,9.60
2023-01-10T23:48:46.070Z,9.60
2023-01-10T23:51:13.478Z,9.50
2023-01-10T23:53:40.969Z,9.60
2023-01-10T23:56:09.811Z,9.70
2023-01-10T23:58:36.872Z,9.60
